Kaiapoi, New Zealand
Current Conditions -  °F | °C
As of 8:00 AM on Tuesday 25 Nov 2014 (Local Time) from NZCH Reporting Station
Overcast Overcast  
Wind Chill: 57°   Ceiling: 1200
Heat Index: 57°   Visibility: 6mi
Dew Point: 52°   Wind: 1mph
Humidity: 82%   Direction: 200°SSW
Pressure: 29.83"   Gusts: NA
Location:  43.38°S, 172.65°E
Report Text: NZCH 242000Z AUTO 20001KT 9999 OVC012/// 14/11 Q1010 NOSIG
Loading
Personal Weather Stations






























Interactive Weather Map New forecast layout! Learn more

10-Day Weather Forecast

Advertisements
Track Severe Weather on mobile